Time;durP1;ratioP1;P1;durP2;ratioP2;P2;SDS_P1;SDS_P2;PMS_P1;PMS_P2;Temp;Humidity;BMP_temperature;BMP_pressure;BME280_temperature;BME280_humidity;BME280_pressure;Samples;Min_cycle;Max_cycle;Signal;HPM_P1;HPM_P2
2024/01/06 00:17:34;;;;;;;19.50;10.10;;;;;;;6.28;100.00;100315.88;6037917;23;20094;-90
2024/01/06 00:37:01;;;;;;;25.08;12.05;;;;;;;6.09;100.00;100339.41;6006639;23;20022;-91
2024/01/06 00:43:40;;;;;;;;;;;;;;;;;;;;;
2024/01/06 00:54:01;;;;;;;23.15;11.10;;;;;;;6.00;100.00;100340.81;6006025;23;20016;-90
2024/01/06 00:57:00;;;;;;;24.92;12.15;;;;;;;6.01;100.00;100345.16;6004921;23;20105;-91
2024/01/06 01:06:00;;;;;;;26.58;11.55;;;;;;;5.97;100.00;100349.34;6062484;23;20352;-91
2024/01/06 01:33:01;;;;;;;22.10;11.07;;;;;;;5.87;100.00;100375.69;6274437;22;20026;-89
2024/01/06 02:06:11;;;;;;;20.27;10.07;;;;;;;5.78;100.00;100415.03;6274433;22;20339;-90
2024/01/06 02:09:01;;;;;;;20.35;9.88;;;;;;;5.77;100.00;100418.44;6254341;22;20446;-90
2024/01/06 02:12:03;;;;;;;20.50;10.18;;;;;;;5.75;100.00;100415.78;6304649;22;20226;-90
2024/01/06 02:15:00;;;;;;;21.88;10.43;;;;;;;5.75;100.00;100423.53;6276513;22;20030;-90
2024/01/06 03:03:15;;;;;;;;;;;;;;;;;;;;;
2024/01/06 03:13:02;;;;;;;13.95;6.35;;;;;;;5.22;100.00;100520.56;6122572;23;20054;-90
2024/01/06 03:26:06;;;;;;;12.30;5.70;;;;;;;5.08;100.00;100542.38;6217932;22;20098;-90
2024/01/06 03:36:11;;;;;;;9.23;4.82;;;;;;;4.99;100.00;100546.34;6305788;22;20027;-91
2024/01/06 03:39:01;;;;;;;8.57;4.70;;;;;;;4.96;100.00;100553.09;6278345;22;20003;-90
2024/01/06 03:59:23;;;;;;;;;;;;;;;;;;;;;
2024/01/06 04:02:00;;;;;;;9.35;5.50;;;;;;;4.83;100.00;100572.34;6295484;22;19999;-91
2024/01/06 04:14:01;;;;;;;11.30;5.70;;;;;;;4.76;100.00;100585.81;6275079;22;20016;-91
2024/01/06 04:39:00;;;;;;;9.60;4.43;;;;;;;4.59;100.00;100610.88;6064460;23;20395;-90
2024/01/06 04:48:01;;;;;;;11.65;5.20;;;;;;;4.56;100.00;100619.34;6078536;23;20013;-91
2024/01/06 05:43:11;;;;;;;;;;;;;;;;;;;;;
2024/01/06 05:53:00;;;;;;;7.13;3.75;;;;;;;4.43;100.00;100689.28;6271702;22;20081;-90
2024/01/06 05:59:02;;;;;;;7.88;3.72;;;;;;;4.39;100.00;100697.69;6271455;22;20097;-91
2024/01/06 06:09:01;;;;;;;7.93;3.80;;;;;;;4.39;100.00;100710.59;6271420;22;20858;-91
2024/01/06 06:34:01;;;;;;;7.75;3.85;;;;;;;4.27;100.00;100753.06;6183725;23;20009;-91
2024/01/06 06:40:01;;;;;;;8.93;4.28;;;;;;;4.20;100.00;100751.00;6182688;23;20120;-91
2024/01/06 06:46:03;;;;;;;8.43;3.97;;;;;;;4.17;100.00;100756.91;6182560;23;20029;-90
2024/01/06 06:56:19;;;;;;;;;;;;;;;;;;;;;
2024/01/06 07:03:26;;;;;;;;;;;;;;;;;;;;;
2024/01/06 07:20:00;;;;;;;10.68;5.22;;;;;;;4.11;100.00;100840.81;6040268;23;20011;-91
2024/01/06 07:23:02;;;;;;;10.95;5.80;;;;;;;4.10;100.00;100839.94;6239458;23;20000;-91
2024/01/06 07:54:00;;;;;;;12.95;5.97;;;;;;;4.03;100.00;100867.88;5950824;24;20083;-90
2024/01/06 08:15:12;;;;;;;;;;;;;;;;;;;;;
2024/01/06 08:18:03;;;;;;;13.65;6.40;;;;;;;4.03;100.00;100914.28;5895448;24;20537;-90
2024/01/06 08:32:03;;;;;;;14.40;6.43;;;;;;;4.02;100.00;100917.69;5984556;23;20163;-90
2024/01/06 08:46:18;;;;;;;;;;;;;;;;;;;;;
2024/01/06 08:53:02;;;;;;;14.10;7.25;;;;;;;3.86;100.00;100963.28;5956260;23;20040;-95
2024/01/06 08:56:07;;;;;;;13.25;6.72;;;;;;;3.85;100.00;100964.09;5955239;24;20476;-95
2024/01/06 08:58:50;;;;;;;11.93;6.53;;;;;;;3.82;100.00;100969.09;6007198;23;20014;-95
2024/01/06 09:01:42;;;;;;;14.10;6.03;;;;;;;3.81;100.00;100969.91;6070931;23;20501;-95
2024/01/06 09:07:52;;;;;;;;;;;;;;;;;;;;;
2024/01/06 09:13:59;;;;;;;;;;;;;;;;;;;;;
2024/01/06 09:16:40;;;;;;;13.90;7.22;;;;;;;3.80;100.00;100988.75;6246709;23;20057;-94
2024/01/06 09:19:18;;;;;;;13.80;7.43;;;;;;;3.78;100.00;100988.66;6244084;23;20008;-94
2024/01/06 09:22:17;;;;;;;;;;;;;;;;;;;;;
2024/01/06 09:25:12;;;;;;;;;;;;;;;;;;;;;
2024/01/06 09:27:51;;;;;;;;;;;;;;;;;;;;;
2024/01/06 09:30:25;;;;;;;14.50;7.75;;;;;;;3.82;100.00;101006.09;6245873;23;20075;-95
2024/01/06 09:36:21;;;;;;;12.75;6.63;;;;;;;3.79;100.00;101007.59;6235297;23;20011;-94
2024/01/06 09:38:59;;;;;;;;;;;;;;;;;;;;;
2024/01/06 09:45:03;;;;;;;12.88;7.03;;;;;;;3.76;100.00;101028.03;6245726;23;20111;-95
2024/01/06 09:48:03;;;;;;;12.90;7.15;;;;;;;3.78;100.00;101042.78;6244332;23;20004;-95
2024/01/06 09:50:42;;;;;;;12.20;6.85;;;;;;;3.78;100.00;101052.19;6192151;23;20065;-94
2024/01/06 09:53:20;;;;;;;13.95;7.38;;;;;;;3.77;100.00;101058.19;6243390;23;20008;-93
2024/01/06 09:55:52;;;;;;;13.85;8.02;;;;;;;3.75;100.00;101062.34;6241595;23;20029;-94
2024/01/06 09:58:21;;;;;;;13.50;7.72;;;;;;;3.75;100.00;101059.78;6219012;23;20024;-94
2024/01/06 10:00:51;;;;;;;13.15;7.47;;;;;;;3.75;100.00;101058.09;6218341;23;20004;-95
2024/01/06 10:03:21;;;;;;;11.70;7.18;;;;;;;3.77;100.00;101064.22;6219323;23;20032;-95
2024/01/06 10:05:48;;;;;;;14.50;7.25;;;;;;;3.76;100.00;101065.00;6219265;23;20004;-94
2024/01/06 10:08:18;;;;;;;15.05;7.70;;;;;;;3.76;100.00;101072.72;6219309;23;20005;-93
2024/01/06 10:10:51;;;;;;;12.35;6.97;;;;;;;3.75;100.00;101068.41;6243316;23;20012;-94
2024/01/06 10:13:24;;;;;;;13.07;7.30;;;;;;;3.76;100.00;101077.00;6245262;23;20087;-95
2024/01/06 10:15:53;;;;;;;13.05;7.40;;;;;;;3.75;100.00;101072.66;6219417;23;20578;-95
2024/01/06 10:18:36;;;;;;;13.70;7.28;;;;;;;3.78;100.00;101085.69;6218958;23;20035;-95
2024/01/06 10:21:21;;;;;;;14.52;7.13;;;;;;;3.79;100.00;101084.91;6244353;23;20053;-94
2024/01/06 10:23:58;;;;;;;13.15;7.05;;;;;;;3.77;100.00;101084.81;6219361;23;20439;-94
2024/01/06 10:29:55;;;;;;;14.25;7.00;;;;;;;3.79;100.00;101100.38;6246129;23;20039;-95
2024/01/06 10:32:33;;;;;;;11.00;6.50;;;;;;;3.76;100.00;101095.06;6151843;23;20015;-95
2024/01/06 10:35:12;;;;;;;13.77;7.13;;;;;;;3.76;100.00;101089.91;6218564;23;20075;-95
2024/01/06 10:37:50;;;;;;;12.98;7.15;;;;;;;3.76;100.00;101103.66;6212399;23;20011;-95
2024/01/06 10:40:18;;;;;;;14.65;7.43;;;;;;;3.77;100.00;101086.53;6219105;23;20008;-94
2024/01/06 10:42:50;;;;;;;12.07;7.28;;;;;;;3.76;100.00;101095.94;6244329;23;20003;-95
2024/01/06 10:45:32;;;;;;;14.32;7.55;;;;;;;3.76;100.00;101106.25;6218225;23;20313;-95
2024/01/06 10:48:00;;;;;;;13.98;7.32;;;;;;;3.75;100.00;101104.50;6218938;23;20096;-94
2024/01/06 10:50:34;;;;;;;12.75;7.22;;;;;;;3.73;100.00;101105.19;6244400;23;20079;-95
2024/01/06 10:53:03;;;;;;;13.13;7.18;;;;;;;3.73;100.00;101113.81;6218585;23;20042;-95
2024/01/06 10:55:30;;;;;;;11.63;7.10;;;;;;;3.71;100.00;101117.09;6244279;23;20038;-95
2024/01/06 10:58:19;;;;;;;12.25;6.70;;;;;;;3.72;100.00;101114.63;6244681;23;20046;-95
2024/01/06 11:01:49;;;;;;;12.67;6.73;;;;;;;3.76;100.00;101113.09;6215116;23;20011;-95
2024/01/06 11:05:20;;;;;;;;;;;;;;;;;;;;;
2024/01/06 11:08:01;;;;;;;11.00;6.05;;;;;;;3.72;100.00;101114.63;6245112;23;20402;-96
2024/01/06 11:11:16;;;;;;;13.95;6.97;;;;;;;3.77;100.00;101127.75;6219503;23;20635;-96
2024/01/06 11:14:52;;;;;;;;;;;;;;;;;;;;;
2024/01/06 11:21:30;;;;;;;14.18;7.15;;;;;;;3.83;100.00;101136.72;6126321;23;20068;-96
2024/01/06 11:28:21;;;;;;;10.23;5.78;;;;;;;3.84;100.00;101129.88;6184011;23;20048;-95
2024/01/06 11:31:20;;;;;;;11.18;6.22;;;;;;;3.83;100.00;101118.66;6184826;23;20016;-95
2024/01/06 11:34:24;;;;;;;10.98;6.40;;;;;;;3.83;100.00;101128.09;6184360;23;20009;-95
2024/01/06 11:37:09;;;;;;;10.85;6.05;;;;;;;3.89;100.00;101135.28;6180387;23;20015;-95
2024/01/06 11:43:24;;;;;;;10.48;5.75;;;;;;;3.86;100.00;101136.00;6176424;23;20013;-96
2024/01/06 11:49:49;;;;;;;;;;;;;;;;;;;;;
2024/01/06 11:53:03;;;;;;;10.52;5.88;;;;;;;3.85;100.00;101135.91;6217336;23;20430;-96
2024/01/06 11:55:54;;;;;;;11.60;5.95;;;;;;;3.83;100.00;101135.84;6187391;23;20029;-95
2024/01/06 12:23:00;;;;;;;11.20;6.50;;;;;;;3.75;100.00;101138.00;6037724;23;20007;-95
2024/01/06 12:26:05;;;;;;;14.30;6.75;;;;;;;3.77;100.00;101143.22;6014158;23;20010;-95
2024/01/06 12:32:53;;;;;;;11.20;6.38;;;;;;;3.73;100.00;101136.13;6036524;23;20011;-96
2024/01/06 12:35:58;;;;;;;14.02;6.95;;;;;;;3.73;100.00;101147.31;6013942;23;20014;-96
2024/01/06 12:52:26;;;;;;;13.25;7.28;;;;;;;3.68;100.00;101145.28;6154356;23;20020;-96
2024/01/06 12:55:29;;;;;;;12.90;7.32;;;;;;;3.68;100.00;101158.16;6153485;23;20013;-96
2024/01/06 12:58:12;;;;;;;15.25;7.88;;;;;;;3.64;100.00;101151.97;6095562;23;20007;-96
2024/01/06 13:04:23;;;;;;;12.05;6.80;;;;;;;3.65;100.00;101162.34;6096437;23;20052;-96
2024/01/06 13:07:46;;;;;;;11.52;6.78;;;;;;;3.62;100.00;101157.03;6069843;23;20010;-96
2024/01/06 13:11:08;;;;;;;11.02;6.25;;;;;;;3.59;100.00;101154.28;6094569;23;20074;-95
2024/01/06 13:14:32;;;;;;;;;;;;;;;;;;;;;
2024/01/06 13:17:21;;;;;;;;;;;;;;;;;;;;;
2024/01/06 13:27:51;;;;;;;9.90;5.22;;;;;;;3.62;100.00;101164.75;6093948;23;20014;-95
2024/01/06 13:34:53;;;;;;;;;;;;;;;;;;;;;
2024/01/06 13:37:58;;;;;;;8.65;4.93;;;;;;;3.68;100.00;101176.19;6022644;23;20430;-95
2024/01/06 13:41:07;;;;;;;8.85;5.00;;;;;;;3.70;100.00;101180.63;6093136;23;20455;-96
2024/01/06 13:47:18;;;;;;;8.07;4.13;;;;;;;3.70;100.00;101184.91;6124156;23;19904;-96
2024/01/06 14:11:10;;;;;;;;;;;;;;;;;;;;;
2024/01/06 14:17:49;;;;;;;;;;;;;;;;;;;;;
2024/01/06 14:58:01;;;;;;;13.85;7.13;;;;;;;3.41;100.00;101257.13;6249246;23;20455;-96
2024/01/06 15:15:12;;;;;;;;;;;;;;;;;;;;;
2024/01/06 15:18:11;;;;;;;14.75;8.65;;;;;;;3.36;100.00;101294.63;6215046;23;20088;-95
2024/01/06 15:52:23;;;;;;;15.05;8.52;;;;;;;3.27;100.00;101335.25;6067390;23;20022;-96
2024/01/06 15:55:41;;;;;;;;;;;;;;;;;;;;;
2024/01/06 16:40:00;;;;;;;14.48;8.25;;;;;;;3.09;100.00;101379.69;6154241;23;20020;-96
2024/01/06 16:56:59;;;;;;;14.70;8.25;;;;;;;3.09;100.00;101389.97;6183409;23;20095;-96
2024/01/06 17:21:00;;;;;;;13.07;7.75;;;;;;;3.07;100.00;101390.66;5982285;23;20019;-96
2024/01/06 17:24:27;;;;;;;;;;;;;;;;;;;;;
2024/01/06 17:30:53;;;;;;;14.52;7.80;;;;;;;3.04;100.00;101401.69;5953301;24;20020;-96
2024/01/06 17:33:57;;;;;;;13.45;8.13;;;;;;;3.04;100.00;101405.94;5935014;24;20013;-96
2024/01/06 18:21:10;;;;;;;13.07;8.52;;;;;;;2.95;100.00;101440.63;6009597;23;20015;-96
2024/01/06 18:28:02;;;;;;;14.15;8.60;;;;;;;2.94;100.00;101446.53;6017962;23;20026;-96
2024/01/06 18:34:57;;;;;;;14.75;8.35;;;;;;;2.90;100.00;101446.25;6039011;23;20024;-96
2024/01/06 18:38:00;;;;;;;14.32;8.63;;;;;;;2.91;100.00;101453.16;6058711;23;20019;-96
2024/01/06 18:44:04;;;;;;;17.02;9.23;;;;;;;2.88;100.00;101459.03;6156717;23;20019;-95
2024/01/06 19:03:16;;;;;;;;;;;;;;;;;;;;;
2024/01/06 19:06:24;;;;;;;16.67;9.77;;;;;;;2.85;100.00;101478.50;6217436;23;20088;-96
2024/01/06 19:09:33;;;;;;;16.52;10.25;;;;;;;2.83;100.00;101478.41;6189652;23;20001;-95
2024/01/06 19:12:41;;;;;;;17.67;10.20;;;;;;;2.82;100.00;101479.19;6189932;23;20012;-95
2024/01/06 19:23:08;;;;;;;;;;;;;;;;;;;;;
2024/01/06 19:26:17;;;;;;;17.13;10.63;;;;;;;2.81;100.00;101498.03;6125176;23;20081;-95
2024/01/06 19:32:50;;;;;;;18.83;10.23;;;;;;;2.78;100.00;101498.72;6067080;23;20013;-95
2024/01/06 19:36:38;;;;;;;18.92;11.25;;;;;;;2.76;100.00;101499.41;6100724;23;20013;-95
2024/01/06 19:39:35;;;;;;;;;;;;;;;;;;;;;
2024/01/06 19:49:34;;;;;;;19.88;10.82;;;;;;;2.67;100.00;101515.13;6039077;23;20102;-95
2024/01/06 19:52:52;;;;;;;20.95;11.48;;;;;;;2.65;100.00;101511.56;6014771;23;20011;-95
2024/01/06 19:55:57;;;;;;;19.17;10.90;;;;;;;2.61;100.00;101515.59;6107348;23;20004;-94
2024/01/06 20:11:00;;;;;;;19.23;10.63;;;;;;;2.58;100.00;101525.69;6304212;22;20496;-96
2024/01/06 20:13:30;;;;;;;21.13;11.27;;;;;;;2.61;100.00;101533.59;6278865;22;20493;-96
2024/01/06 20:15:59;;;;;;;21.80;11.60;;;;;;;2.60;100.00;101533.50;6304757;22;20007;-95
2024/01/06 20:18:33;;;;;;;18.60;10.98;;;;;;;2.55;100.00;101540.94;6278965;22;20015;-95
2024/01/06 20:21:03;;;;;;;20.58;11.93;;;;;;;2.57;100.00;101541.03;6304910;22;20003;-94
2024/01/06 20:23:39;;;;;;;18.88;11.65;;;;;;;2.56;100.00;101542.72;6278920;22;20410;-95
2024/01/06 20:26:05;;;;;;;20.33;11.85;;;;;;;2.54;100.00;101536.56;6274095;22;20007;-95
2024/01/06 20:28:31;;;;;;;22.52;12.50;;;;;;;2.53;100.00;101534.75;6248659;22;20082;-95
2024/01/06 20:30:59;;;;;;;21.98;12.65;;;;;;;2.53;100.00;101531.31;6248901;22;20031;-96
2024/01/06 20:33:25;;;;;;;20.43;12.47;;;;;;;2.52;100.00;101545.88;6248753;22;20004;-96
2024/01/06 20:36:00;;;;;;;22.48;12.95;;;;;;;2.50;100.00;101547.44;6247952;22;20447;-95
2024/01/06 20:38:26;;;;;;;21.67;12.70;;;;;;;2.47;100.00;101539.50;6248491;22;20003;-96
2024/01/06 20:41:02;;;;;;;21.65;12.60;;;;;;;2.47;100.00;101546.34;6249060;22;20057;-95
2024/01/06 20:43:36;;;;;;;21.02;13.05;;;;;;;2.43;100.00;101548.72;6248498;22;20008;-95
2024/01/06 20:46:06;;;;;;;22.92;13.48;;;;;;;2.46;100.00;101557.41;6246986;22;20010;-95
2024/01/06 20:48:32;;;;;;;22.40;12.80;;;;;;;2.43;100.00;101560.66;6273685;22;20004;-95
2024/01/06 20:51:07;;;;;;;25.13;13.57;;;;;;;2.41;100.00;101554.53;6248318;22;20060;-95
2024/01/06 20:53:35;;;;;;;21.90;12.60;;;;;;;2.43;100.00;101565.81;6273806;22;20434;-95
2024/01/06 20:56:04;;;;;;;21.83;13.05;;;;;;;2.41;100.00;101563.13;6248237;22;20094;-95
2024/01/06 20:58:30;;;;;;;22.70;12.60;;;;;;;2.39;100.00;101558.66;6248492;22;20027;-95
2024/01/06 21:00:58;;;;;;;20.88;12.38;;;;;;;2.40;100.00;101565.59;6273995;22;20046;-95
2024/01/06 21:03:26;;;;;;;21.13;12.00;;;;;;;2.38;100.00;101562.91;6247956;22;20010;-95
2024/01/06 21:06:02;;;;;;;21.80;12.18;;;;;;;2.40;100.00;101576.78;6273568;22;20061;-96
2024/01/06 21:08:32;;;;;;;21.33;12.82;;;;;;;2.36;100.00;101567.09;6275066;22;20007;-95
2024/01/06 21:11:06;;;;;;;22.75;13.02;;;;;;;2.35;100.00;101566.97;6247794;22;20016;-95
2024/01/06 21:13:40;;;;;;;21.35;12.23;;;;;;;2.34;100.00;101567.75;6248566;22;20004;-96
2024/01/06 21:16:05;;;;;;;24.10;13.40;;;;;;;2.32;100.00;101564.16;6247977;22;20008;-96
2024/01/06 21:18:36;;;;;;;23.45;12.65;;;;;;;2.33;100.00;101568.53;6273444;22;20004;-95
2024/01/06 21:21:07;;;;;;;22.27;12.40;;;;;;;2.28;100.00;101559.63;6247639;22;20513;-95
2024/01/06 21:23:32;;;;;;;23.20;13.00;;;;;;;2.26;100.00;101562.97;6248087;22;20013;-95
2024/01/06 21:26:04;;;;;;;22.35;12.95;;;;;;;2.29;100.00;101569.09;6247631;22;20007;-96
2024/01/06 21:28:36;;;;;;;22.73;12.90;;;;;;;2.28;100.00;101564.78;6248260;22;20027;-95
2024/01/06 21:31:02;;;;;;;24.25;14.18;;;;;;;2.28;100.00;101569.91;6247550;22;20003;-95
2024/01/06 21:33:33;;;;;;;24.75;13.30;;;;;;;2.26;100.00;101572.38;6247932;22;19996;-95
2024/01/06 21:36:02;;;;;;;23.52;13.07;;;;;;;2.25;100.00;101565.44;6248130;22;20007;-95
2024/01/06 21:38:28;;;;;;;22.63;13.07;;;;;;;2.25;100.00;101568.91;6247927;22;20004;-95
2024/01/06 21:40:56;;;;;;;22.80;13.00;;;;;;;2.25;100.00;101575.72;6248469;22;20013;-95
2024/01/06 21:43:30;;;;;;;24.25;13.15;;;;;;;2.28;100.00;101575.06;6248317;22;20335;-95
2024/01/06 21:46:06;;;;;;;;;;;;;;;;;;;;;
2024/01/06 21:48:32;;;;;;;22.70;12.75;;;;;;;2.24;100.00;101576.50;6274355;22;20367;-95
2024/01/06 21:51:08;;;;;;;24.88;13.52;;;;;;;2.24;100.00;101574.81;6247392;22;20031;-95
2024/01/06 21:53:35;;;;;;;24.38;13.68;;;;;;;2.26;100.00;101577.53;6228100;22;20020;-95
2024/01/06 21:56:01;;;;;;;22.77;13.10;;;;;;;2.24;100.00;101579.09;6245498;22;20004;-95
2024/01/06 21:58:35;;;;;;;23.42;12.50;;;;;;;2.25;100.00;101580.88;6247685;22;20067;-95
2024/01/06 22:01:10;;;;;;;22.48;12.63;;;;;;;2.22;100.00;101578.09;6247687;22;20003;-95
2024/01/06 22:03:39;;;;;;;23.50;12.85;;;;;;;2.20;100.00;101578.00;6247939;22;20082;-96
2024/01/06 22:06:07;;;;;;;23.02;12.98;;;;;;;2.21;100.00;101582.31;6247760;22;20090;-95
2024/01/06 22:08:44;;;;;;;22.92;13.15;;;;;;;2.22;100.00;101578.09;6247106;22;20012;-95
2024/01/06 22:11:17;;;;;;;23.42;12.70;;;;;;;2.21;100.00;101587.47;6247055;22;20015;-96
2024/01/06 22:13:45;;;;;;;24.20;13.48;;;;;;;2.20;100.00;101589.94;6273360;22;20142;-96
2024/01/06 22:16:14;;;;;;;23.05;13.10;;;;;;;2.20;100.00;101597.66;6273964;22;20000;-95
2024/01/06 22:18:40;;;;;;;23.90;13.05;;;;;;;2.20;100.00;101588.28;6273394;22;20086;-95
2024/01/06 22:21:11;;;;;;;23.58;12.90;;;;;;;2.19;100.00;101595.88;6247470;22;20069;-95
2024/01/06 22:23:39;;;;;;;22.40;13.15;;;;;;;2.18;100.00;101584.69;6247846;22;20007;-96
2024/01/06 22:26:05;;;;;;;25.15;13.48;;;;;;;2.19;100.00;101594.19;6248064;22;20007;-96
2024/01/06 22:28:36;;;;;;;24.13;13.10;;;;;;;2.19;100.00;101595.88;6247536;22;20173;-95
2024/01/06 22:31:03;;;;;;;23.88;13.43;;;;;;;2.16;100.00;101601.69;6246889;22;20003;-95
2024/01/06 22:33:36;;;;;;;25.23;13.05;;;;;;;2.14;100.00;101603.25;6247681;22;20461;-95
2024/01/06 22:36:23;;;;;;;25.52;13.32;;;;;;;2.12;100.00;101607.41;6248156;22;20082;-95
2024/01/06 22:39:01;;;;;;;22.52;12.38;;;;;;;2.08;100.00;101610.53;6247377;22;20081;-96
2024/01/06 22:41:32;;;;;;;24.63;13.27;;;;;;;2.08;100.00;101613.13;6246918;22;20080;-96
2024/01/06 22:44:01;;;;;;;24.48;12.95;;;;;;;2.05;100.00;101616.34;6247697;22;20418;-95
2024/01/06 22:46:29;;;;;;;22.27;12.45;;;;;;;2.03;100.00;101617.06;6247552;22;20008;-95
2024/01/06 22:49:04;;;;;;;24.93;13.30;;;;;;;2.04;100.00;101624.88;6247346;22;20003;-95
2024/01/06 22:51:37;;;;;;;23.73;13.13;;;;;;;2.04;100.00;101626.53;6246307;22;20434;-95
2024/01/06 22:54:05;;;;;;;25.55;13.55;;;;;;;1.99;100.00;101622.75;6246769;22;20007;-95
2024/01/06 22:56:33;;;;;;;24.15;12.90;;;;;;;1.97;100.00;101624.31;6246885;22;20338;-95
2024/01/06 22:59:01;;;;;;;22.40;11.93;;;;;;;1.96;100.00;101630.25;6247256;22;19996;-95
2024/01/06 23:01:28;;;;;;;21.50;11.82;;;;;;;1.91;100.00;101619.63;6247315;22;20301;-95
2024/01/06 23:03:56;;;;;;;21.83;12.13;;;;;;;1.90;100.00;101628.16;6247212;22;20030;-95
2024/01/06 23:09:28;;;;;;;21.33;11.55;;;;;;;1.86;100.00;101632.16;6275619;22;20016;-95
2024/01/06 23:12:00;;;;;;;22.02;11.98;;;;;;;1.84;100.00;101631.16;6273779;22;20086;-95
2024/01/06 23:14:26;;;;;;;21.95;11.63;;;;;;;1.83;100.00;101636.19;6249470;22;20018;-96
2024/01/06 23:16:52;;;;;;;24.52;12.52;;;;;;;1.81;100.00;101643.78;6249113;22;20039;-94
2024/01/06 23:19:25;;;;;;;21.95;11.95;;;;;;;1.79;100.00;101637.63;6249225;22;20425;-96
2024/01/06 23:21:54;;;;;;;23.20;12.10;;;;;;;1.80;100.00;101647.13;6249001;22;20004;-95
2024/01/06 23:24:24;;;;;;;23.55;12.65;;;;;;;1.79;100.00;101647.03;6249566;22;20361;-95
2024/01/06 23:26:59;;;;;;;24.85;13.00;;;;;;;1.79;100.00;101652.16;6274973;22;20086;-96
2024/01/06 23:29:25;;;;;;;26.02;12.52;;;;;;;1.77;100.00;101646.94;6249205;22;20023;-95
2024/01/06 23:31:59;;;;;;;25.77;12.63;;;;;;;1.77;100.00;101651.16;6248855;22;20006;-96
2024/01/06 23:34:31;;;;;;;27.50;12.98;;;;;;;1.75;100.00;101658.75;6249185;22;20497;-96
2024/01/06 23:36:59;;;;;;;24.98;12.48;;;;;;;1.74;100.00;101656.97;6249284;22;20034;-96
2024/01/06 23:39:31;;;;;;;27.75;13.05;;;;;;;1.73;100.00;101657.75;6248740;22;20003;-95
2024/01/06 23:41:57;;;;;;;26.70;13.73;;;;;;;1.71;100.00;101660.22;6248420;22;20004;-95
2024/01/06 23:44:32;;;;;;;26.13;12.90;;;;;;;1.72;100.00;101663.66;6248724;22;20003;-94
2024/01/06 23:47:00;;;;;;;26.65;13.15;;;;;;;1.71;100.00;101667.94;6248878;22;20008;-95
2024/01/06 23:49:28;;;;;;;26.20;12.83;;;;;;;1.69;100.00;101666.03;6249155;22;20003;-95
2024/01/06 23:52:00;;;;;;;24.98;12.52;;;;;;;1.70;100.00;101671.28;6248735;22;20254;-95
2024/01/06 23:54:25;;;;;;;25.10;12.93;;;;;;;1.70;100.00;101680.66;6248813;22;20007;-95
2024/01/06 23:56:51;;;;;;;25.58;12.68;;;;;;;1.72;100.00;101681.66;6247861;22;20012;-95
